sensor_id;sensor_type;location;lat;lon;timestamp;pressure;altitude;pressure_sealevel;temperature;humidity
78685;BME280;68002;52.310;6.990;2023-02-27T00:00:20;102550.66;;;-0.92;68.41
78685;BME280;68002;52.310;6.990;2023-02-27T00:02:47;102550.66;;;-0.92;68.47
78685;BME280;68002;52.310;6.990;2023-02-27T00:05:13;102547.22;;;-0.97;69.05
78685;BME280;68002;52.310;6.990;2023-02-27T00:07:39;102556.84;;;-0.96;68.27
78685;BME280;68002;52.310;6.990;2023-02-27T00:10:06;102548.16;;;-1.01;69.66
78685;BME280;68002;52.310;6.990;2023-02-27T00:12:32;102542.91;;;-1.01;69.38
78685;BME280;68002;52.310;6.990;2023-02-27T00:14:57;102558.59;;;-0.96;70.15
78685;BME280;68002;52.310;6.990;2023-02-27T00:17:22;102557.69;;;-0.94;69.62
78685;BME280;68002;52.310;6.990;2023-02-27T00:19:48;102548.06;;;-0.93;69.79
78685;BME280;68002;52.310;6.990;2023-02-27T00:22:13;102552.34;;;-0.88;69.68
78685;BME280;68002;52.310;6.990;2023-02-27T00:24:38;102546.25;;;-0.90;69.54
78685;BME280;68002;52.310;6.990;2023-02-27T00:27:03;102547.13;;;-0.91;68.65
78685;BME280;68002;52.310;6.990;2023-02-27T00:29:28;102540.16;;;-0.95;68.80
78685;BME280;68002;52.310;6.990;2023-02-27T00:31:54;102535.72;;;-0.91;69.73
78685;BME280;68002;52.310;6.990;2023-02-27T00:34:19;102537.53;;;-0.92;69.67
78685;BME280;68002;52.310;6.990;2023-02-27T00:36:44;102537.53;;;-0.95;69.63
78685;BME280;68002;52.310;6.990;2023-02-27T00:39:09;102537.66;;;-1.01;68.31
78685;BME280;68002;52.310;6.990;2023-02-27T00:41:34;102545.56;;;-1.04;68.75
78685;BME280;68002;52.310;6.990;2023-02-27T00:44:00;102532.56;;;-1.12;68.89
78685;BME280;68002;52.310;6.990;2023-02-27T00:46:25;102538.69;;;-1.11;70.30
78685;BME280;68002;52.310;6.990;2023-02-27T00:48:50;102537.84;;;-1.13;69.17
78685;BME280;68002;52.310;6.990;2023-02-27T00:51:15;102536.19;;;-1.19;69.81
78685;BME280;68002;52.310;6.990;2023-02-27T00:53:41;102537.94;;;-1.18;70.45
78685;BME280;68002;52.310;6.990;2023-02-27T00:56:06;102532.69;;;-1.18;70.42
78685;BME280;68002;52.310;6.990;2023-02-27T00:58:32;102539.69;;;-1.18;69.90
78685;BME280;68002;52.310;6.990;2023-02-27T01:01:00;102545.88;;;-1.22;68.78
78685;BME280;68002;52.310;6.990;2023-02-27T01:03:25;102538.91;;;-1.26;70.35
78685;BME280;68002;52.310;6.990;2023-02-27T01:05:51;102533.75;;;-1.31;69.94
78685;BME280;68002;52.310;6.990;2023-02-27T01:08:16;102535.53;;;-1.33;70.24
78685;BME280;68002;52.310;6.990;2023-02-27T01:10:41;102532.97;;;-1.37;70.51
78685;BME280;68002;52.310;6.990;2023-02-27T01:13:06;102531.31;;;-1.44;69.94
78685;BME280;68002;52.310;6.990;2023-02-27T01:15:32;102529.69;;;-1.51;70.67
78685;BME280;68002;52.310;6.990;2023-02-27T01:17:57;102524.56;;;-1.60;70.11
78685;BME280;68002;52.310;6.990;2023-02-27T01:20:22;102539.38;;;-1.56;70.30
78685;BME280;68002;52.310;6.990;2023-02-27T01:22:47;102535.06;;;-1.60;71.05
78685;BME280;68002;52.310;6.990;2023-02-27T01:25:12;102530.75;;;-1.66;70.61
78685;BME280;68002;52.310;6.990;2023-02-27T01:27:38;102528.16;;;-1.67;71.57
78685;BME280;68002;52.310;6.990;2023-02-27T01:30:03;102526.50;;;-1.73;70.79
78685;BME280;68002;52.310;6.990;2023-02-27T01:32:29;102535.28;;;-1.77;69.80
78685;BME280;68002;52.310;6.990;2023-02-27T01:34:54;102536.16;;;-1.79;71.62
78685;BME280;68002;52.310;6.990;2023-02-27T01:37:19;102535.34;;;-1.83;71.80
78685;BME280;68002;52.310;6.990;2023-02-27T01:39:44;102533.66;;;-1.85;70.68
78685;BME280;68002;52.310;6.990;2023-02-27T01:42:19;102538.91;;;-1.88;70.79
78685;BME280;68002;52.310;6.990;2023-02-27T01:45:23;102532.00;;;-1.92;72.36
78685;BME280;68002;52.310;6.990;2023-02-27T01:47:52;102536.41;;;-1.96;71.36
78685;BME280;68002;52.310;6.990;2023-02-27T01:50:20;102534.69;;;-1.98;71.18
78685;BME280;68002;52.310;6.990;2023-02-27T01:52:51;102540.00;;;-2.05;72.00
78685;BME280;68002;52.310;6.990;2023-02-27T01:55:18;102543.53;;;-2.07;70.67
78685;BME280;68002;52.310;6.990;2023-02-27T01:57:45;102537.44;;;-2.11;71.22
78685;BME280;68002;52.310;6.990;2023-02-27T02:00:12;102530.53;;;-2.15;71.67
78685;BME280;68002;52.310;6.990;2023-02-27T02:02:40;102526.16;;;-2.17;72.79
78685;BME280;68002;52.310;6.990;2023-02-27T02:05:07;102529.69;;;-2.20;72.71
78685;BME280;68002;52.310;6.990;2023-02-27T02:07:34;102539.28;;;-2.19;72.08
78685;BME280;68002;52.310;6.990;2023-02-27T02:10:01;102541.06;;;-2.21;72.09
78685;BME280;68002;52.310;6.990;2023-02-27T02:12:32;102534.09;;;-2.23;72.35
78685;BME280;68002;52.310;6.990;2023-02-27T02:14:57;102538.50;;;-2.27;72.48
78685;BME280;68002;52.310;6.990;2023-02-27T02:23:03;102551.50;;;-2.18;72.81
78685;BME280;68002;52.310;6.990;2023-02-27T02:39:24;102548.22;;;-2.35;72.73
78685;BME280;68002;52.310;6.990;2023-02-27T02:50:13;102551.78;;;-2.40;73.67
78685;BME280;68002;52.310;6.990;2023-02-27T02:53:17;102550.00;;;-2.41;73.66
78685;BME280;68002;52.310;6.990;2023-02-27T02:56:06;102550.94;;;-2.47;73.51
78685;BME280;68002;52.310;6.990;2023-02-27T02:58:43;102556.22;;;-2.50;72.67
78685;BME280;68002;52.310;6.990;2023-02-27T03:01:48;102548.41;;;-2.54;74.39
78685;BME280;68002;52.310;6.990;2023-02-27T03:04:23;102554.56;;;-2.58;74.00
78685;BME280;68002;52.310;6.990;2023-02-27T03:07:12;102552.88;;;-2.64;74.33
78685;BME280;68002;52.310;6.990;2023-02-27T03:09:50;102552.00;;;-2.67;73.49
78685;BME280;68002;52.310;6.990;2023-02-27T03:12:20;102545.94;;;-2.71;73.99
78685;BME280;68002;52.310;6.990;2023-02-27T03:14:55;102551.25;;;-2.77;73.94
78685;BME280;68002;52.310;6.990;2023-02-27T03:17:28;102557.31;;;-2.73;73.94
78685;BME280;68002;52.310;6.990;2023-02-27T03:20:06;102544.25;;;-2.78;74.23
78685;BME280;68002;52.310;6.990;2023-02-27T03:22:41;102549.53;;;-2.81;74.26
78685;BME280;68002;52.310;6.990;2023-02-27T03:25:11;102554.81;;;-2.84;73.85
78685;BME280;68002;52.310;6.990;2023-02-27T03:27:43;102557.44;;;-2.87;74.16
78685;BME280;68002;52.310;6.990;2023-02-27T03:30:27;102557.41;;;-2.85;74.75
78685;BME280;68002;52.310;6.990;2023-02-27T03:33:00;102559.19;;;-2.89;74.75
78685;BME280;68002;52.310;6.990;2023-02-27T03:35:50;102557.47;;;-2.93;73.57
78685;BME280;68002;52.310;6.990;2023-02-27T03:38:42;102561.84;;;-2.92;75.97
78685;BME280;68002;52.310;6.990;2023-02-27T03:41:14;102559.25;;;-2.95;74.59
78685;BME280;68002;52.310;6.990;2023-02-27T03:46:17;102561.03;;;-2.98;75.42
78685;BME280;68002;52.310;6.990;2023-02-27T03:48:43;102556.69;;;-3.02;74.53
78685;BME280;68002;52.310;6.990;2023-02-27T03:51:13;102563.69;;;-3.04;74.96
78685;BME280;68002;52.310;6.990;2023-02-27T03:54:01;102558.47;;;-3.06;75.77
78685;BME280;68002;52.310;6.990;2023-02-27T03:56:40;102561.09;;;-3.09;76.27
78685;BME280;68002;52.310;6.990;2023-02-27T03:59:06;102574.19;;;-3.09;75.10
78685;BME280;68002;52.310;6.990;2023-02-27T04:01:31;102574.22;;;-3.12;75.63
78685;BME280;68002;52.310;6.990;2023-02-27T04:04:04;102580.34;;;-3.16;74.25
78685;BME280;68002;52.310;6.990;2023-02-27T04:06:33;102579.47;;;-3.17;75.24
78685;BME280;68002;52.310;6.990;2023-02-27T04:09:05;102579.50;;;-3.20;76.52
78685;BME280;68002;52.310;6.990;2023-02-27T04:11:51;102581.25;;;-3.22;75.13
78685;BME280;68002;52.310;6.990;2023-02-27T04:14:38;102585.66;;;-3.27;75.25
78685;BME280;68002;52.310;6.990;2023-02-27T04:17:20;102582.16;;;-3.27;76.11
78685;BME280;68002;52.310;6.990;2023-02-27T04:20:19;102579.53;;;-3.27;76.63
78685;BME280;68002;52.310;6.990;2023-02-27T04:22:58;102590.00;;;-3.27;77.09
78685;BME280;68002;52.310;6.990;2023-02-27T04:25:40;102586.50;;;-3.28;76.92
78685;BME280;68002;52.310;6.990;2023-02-27T04:33:47;102580.38;;;-3.24;78.32
78685;BME280;68002;52.310;6.990;2023-02-27T04:36:26;102583.00;;;-3.25;76.47
78685;BME280;68002;52.310;6.990;2023-02-27T04:39:05;102586.53;;;-3.26;77.64
78685;BME280;68002;52.310;6.990;2023-02-27T04:41:37;102585.63;;;-3.21;79.16
78685;BME280;68002;52.310;6.990;2023-02-27T04:44:07;102593.44;;;-3.19;78.43
78685;BME280;68002;52.310;6.990;2023-02-27T04:46:35;102598.66;;;-3.16;79.37
78685;BME280;68002;52.310;6.990;2023-02-27T04:49:07;102594.25;;;-3.13;77.93
78685;BME280;68002;52.310;6.990;2023-02-27T04:51:38;102598.59;;;-3.09;76.41
78685;BME280;68002;52.310;6.990;2023-02-27T04:54:10;102590.78;;;-3.12;77.63
78685;BME280;68002;52.310;6.990;2023-02-27T04:56:41;102604.69;;;-3.07;79.11
78685;BME280;68002;52.310;6.990;2023-02-27T04:59:12;102615.13;;;-3.02;78.56
78685;BME280;68002;52.310;6.990;2023-02-27T05:01:40;102617.75;;;-3.00;76.96
78685;BME280;68002;52.310;6.990;2023-02-27T05:04:09;102610.75;;;-3.00;77.19
78685;BME280;68002;52.310;6.990;2023-02-27T05:06:38;102598.59;;;-3.09;78.29
78685;BME280;68002;52.310;6.990;2023-02-27T05:12:20;102621.22;;;-3.00;79.07
78685;BME280;68002;52.310;6.990;2023-02-27T05:14:58;102617.75;;;-3.02;79.08
78685;BME280;68002;52.310;6.990;2023-02-27T05:17:32;102626.47;;;-3.03;78.33
78685;BME280;68002;52.310;6.990;2023-02-27T05:19:59;102622.97;;;-3.02;79.23
78685;BME280;68002;52.310;6.990;2023-02-27T05:22:45;102631.69;;;-3.00;80.19
78685;BME280;68002;52.310;6.990;2023-02-27T05:27:50;102630.84;;;-3.00;78.63
78685;BME280;68002;52.310;6.990;2023-02-27T05:33:13;102644.81;;;-3.04;78.89
78685;BME280;68002;52.310;6.990;2023-02-27T05:35:50;102638.69;;;-3.02;78.60
78685;BME280;68002;52.310;6.990;2023-02-27T05:38:40;102632.59;;;-3.02;79.00
78685;BME280;68002;52.310;6.990;2023-02-27T05:41:12;102637.81;;;-3.06;78.10
78685;BME280;68002;52.310;6.990;2023-02-27T05:43:45;102643.09;;;-3.09;80.63
78685;BME280;68002;52.310;6.990;2023-02-27T05:46:20;102650.09;;;-3.11;78.53
78685;BME280;68002;52.310;6.990;2023-02-27T05:48:51;102653.56;;;-3.13;78.21
78685;BME280;68002;52.310;6.990;2023-02-27T05:51:18;102651.84;;;-3.14;78.55
78685;BME280;68002;52.310;6.990;2023-02-27T05:53:47;102651.84;;;-3.19;77.98
78685;BME280;68002;52.310;6.990;2023-02-27T05:56:16;102661.47;;;-3.19;79.06
78685;BME280;68002;52.310;6.990;2023-02-27T05:58:57;102650.16;;;-3.23;79.49
78685;BME280;68002;52.310;6.990;2023-02-27T06:01:24;102660.59;;;-3.20;80.11
78685;BME280;68002;52.310;6.990;2023-02-27T06:03:50;102664.09;;;-3.19;79.16
78685;BME280;68002;52.310;6.990;2023-02-27T06:06:17;102671.94;;;-3.19;79.32
78685;BME280;68002;52.310;6.990;2023-02-27T06:08:43;102670.22;;;-3.23;79.80
78685;BME280;68002;52.310;6.990;2023-02-27T06:11:09;102669.31;;;-3.22;79.53
78685;BME280;68002;52.310;6.990;2023-02-27T06:13:35;102676.31;;;-3.24;79.14
78685;BME280;68002;52.310;6.990;2023-02-27T06:16:00;102672.00;;;-3.28;80.07
78685;BME280;68002;52.310;6.990;2023-02-27T06:18:25;102681.56;;;-3.29;79.34
78685;BME280;68002;52.310;6.990;2023-02-27T06:20:51;102681.59;;;-3.30;79.44
78685;BME280;68002;52.310;6.990;2023-02-27T06:23:16;102672.00;;;-3.33;79.63
78685;BME280;68002;52.310;6.990;2023-02-27T06:25:42;102678.13;;;-3.32;79.79
78685;BME280;68002;52.310;6.990;2023-02-27T06:28:08;102678.09;;;-3.29;80.17
78685;BME280;68002;52.310;6.990;2023-02-27T06:30:34;102680.69;;;-3.28;79.91
78685;BME280;68002;52.310;6.990;2023-02-27T06:32:59;102676.34;;;-3.27;79.65
78685;BME280;68002;52.310;6.990;2023-02-27T06:35:24;102677.19;;;-3.24;80.20
78685;BME280;68002;52.310;6.990;2023-02-27T06:37:49;102672.81;;;-3.20;80.12
78685;BME280;68002;52.310;6.990;2023-02-27T06:40:15;102673.66;;;-3.17;81.01
78685;BME280;68002;52.310;6.990;2023-02-27T06:42:41;102672.75;;;-3.11;80.72
78685;BME280;68002;52.310;6.990;2023-02-27T06:45:08;102672.72;;;-3.05;80.66
78685;BME280;68002;52.310;6.990;2023-02-27T06:47:34;102658.78;;;-3.09;81.24
78685;BME280;68002;52.310;6.990;2023-02-27T06:49:59;102672.72;;;-2.99;80.84
78685;BME280;68002;52.310;6.990;2023-02-27T06:52:25;102678.75;;;-2.91;80.82
78685;BME280;68002;52.310;6.990;2023-02-27T06:54:50;102680.47;;;-2.84;79.83
78685;BME280;68002;52.310;6.990;2023-02-27T06:57:15;102671.72;;;-2.81;79.75
78685;BME280;68002;52.310;6.990;2023-02-27T06:59:41;102676.03;;;-2.73;81.06
78685;BME280;68002;52.310;6.990;2023-02-27T07:02:06;102675.06;;;-2.63;81.01
78685;BME280;68002;52.310;6.990;2023-02-27T07:04:31;102683.75;;;-2.58;79.97
78685;BME280;68002;52.310;6.990;2023-02-27T07:06:57;102686.31;;;-2.49;79.54
78685;BME280;68002;52.310;6.990;2023-02-27T07:09:22;102681.88;;;-2.41;80.22
78685;BME280;68002;52.310;6.990;2023-02-27T07:11:47;102692.31;;;-2.35;80.39
78685;BME280;68002;52.310;6.990;2023-02-27T07:14:13;102688.78;;;-2.31;79.32
78685;BME280;68002;52.310;6.990;2023-02-27T07:16:38;102690.47;;;-2.24;79.45
78685;BME280;68002;52.310;6.990;2023-02-27T07:19:03;102687.81;;;-2.21;79.41
78685;BME280;68002;52.310;6.990;2023-02-27T07:21:28;102694.72;;;-2.09;79.12
78685;BME280;68002;52.310;6.990;2023-02-27T07:23:53;102689.41;;;-2.05;79.08
78685;BME280;68002;52.310;6.990;2023-02-27T07:26:19;102691.13;;;-1.99;78.85
78685;BME280;68002;52.310;6.990;2023-02-27T07:28:44;102704.19;;;-1.94;78.79
78685;BME280;68002;52.310;6.990;2023-02-27T07:31:09;102698.91;;;-1.91;78.85
78685;BME280;68002;52.310;6.990;2023-02-27T07:33:34;102700.63;;;-1.87;79.27
78685;BME280;68002;52.310;6.990;2023-02-27T07:35:59;102706.66;;;-1.81;79.06
78685;BME280;68002;52.310;6.990;2023-02-27T07:38:25;102705.72;;;-1.75;79.86
78685;BME280;68002;52.310;6.990;2023-02-27T07:40:51;102707.38;;;-1.65;80.62
78685;BME280;68002;52.310;6.990;2023-02-27T07:43:17;102705.50;;;-1.54;79.61
78685;BME280;68002;52.310;6.990;2023-02-27T07:45:43;102706.28;;;-1.46;79.29
78685;BME280;68002;52.310;6.990;2023-02-27T07:48:09;102708.72;;;-1.31;79.66
78685;BME280;68002;52.310;6.990;2023-02-27T07:50:34;102715.59;;;-1.23;79.64
78685;BME280;68002;52.310;6.990;2023-02-27T07:52:59;102705.09;;;-1.20;78.84
78685;BME280;68002;52.310;6.990;2023-02-27T07:55:24;102715.41;;;-1.08;78.82
78685;BME280;68002;52.310;6.990;2023-02-27T07:57:49;102712.66;;;-0.97;80.42
78685;BME280;68002;52.310;6.990;2023-02-27T08:00:15;102706.41;;;-0.87;78.71
78685;BME280;68002;52.310;6.990;2023-02-27T08:02:40;102693.06;;;-0.75;79.24
78685;BME280;68002;52.310;6.990;2023-02-27T08:05:06;102708.72;;;-0.64;78.13
78685;BME280;68002;52.310;6.990;2023-02-27T08:07:31;102705.81;;;-0.49;78.55
78685;BME280;68002;52.310;6.990;2023-02-27T08:09:57;102701.34;;;-0.43;78.40
78685;BME280;68002;52.310;6.990;2023-02-27T08:12:22;102706.41;;;-0.31;78.53
78685;BME280;68002;52.310;6.990;2023-02-27T08:14:48;102697.44;;;-0.19;77.39
78685;BME280;68002;52.310;6.990;2023-02-27T08:17:13;102699.00;;;-0.09;77.81
78685;BME280;68002;52.310;6.990;2023-02-27T08:19:38;102704.97;;;0.04;77.35
78685;BME280;68002;52.310;6.990;2023-02-27T08:22:04;102695.19;;;0.10;76.60
78685;BME280;68002;52.310;6.990;2023-02-27T08:24:29;102713.13;;;0.36;77.52
78685;BME280;68002;52.310;6.990;2023-02-27T08:26:54;102708.25;;;0.60;78.12
78685;BME280;68002;52.310;6.990;2023-02-27T08:29:20;102713.00;;;0.84;76.66
78685;BME280;68002;52.310;6.990;2023-02-27T08:31:45;102701.16;;;1.05;75.00
78685;BME280;68002;52.310;6.990;2023-02-27T08:34:10;102707.91;;;1.18;74.99
78685;BME280;68002;52.310;6.990;2023-02-27T08:36:36;102711.88;;;1.36;74.80
78685;BME280;68002;52.310;6.990;2023-02-27T08:39:01;102701.84;;;1.51;74.20
78685;BME280;68002;52.310;6.990;2023-02-27T08:41:26;102710.38;;;1.62;74.91
78685;BME280;68002;52.310;6.990;2023-02-27T08:43:51;102716.31;;;1.72;73.78
78685;BME280;68002;52.310;6.990;2023-02-27T08:46:16;102729.31;;;1.79;73.17
78685;BME280;68002;52.310;6.990;2023-02-27T08:48:42;102725.66;;;1.83;73.34
78685;BME280;68002;52.310;6.990;2023-02-27T08:51:10;102709.06;;;1.80;71.03
78685;BME280;68002;52.310;6.990;2023-02-27T08:53:35;102716.69;;;1.92;72.38
78685;BME280;68002;52.310;6.990;2023-02-27T08:56:00;102713.81;;;2.01;72.76
78685;BME280;68002;52.310;6.990;2023-02-27T08:58:26;102719.69;;;2.12;72.79
78685;BME280;68002;52.310;6.990;2023-02-27T09:00:51;102722.13;;;2.20;72.95
78685;BME280;68002;52.310;6.990;2023-02-27T09:03:16;102731.38;;;2.36;72.07
78685;BME280;68002;52.310;6.990;2023-02-27T09:05:41;102729.13;;;2.53;71.79
78685;BME280;68002;52.310;6.990;2023-02-27T09:08:07;102719.25;;;2.59;72.00
78685;BME280;68002;52.310;6.990;2023-02-27T09:10:33;102729.53;;;2.70;72.01
78685;BME280;68002;52.310;6.990;2023-02-27T09:12:58;102720.66;;;2.72;71.86
78685;BME280;68002;52.310;6.990;2023-02-27T09:15:24;102726.56;;;2.82;71.25
78685;BME280;68002;52.310;6.990;2023-02-27T09:17:49;102725.50;;;2.87;71.83
78685;BME280;68002;52.310;6.990;2023-02-27T09:20:14;102738.41;;;2.98;71.57
78685;BME280;68002;52.310;6.990;2023-02-27T09:22:40;102731.09;;;3.06;71.42
78685;BME280;68002;52.310;6.990;2023-02-27T09:25:06;102740.34;;;3.21;71.74
78685;BME280;68002;52.310;6.990;2023-02-27T09:27:31;102728.72;;;3.26;70.96
78685;BME280;68002;52.310;6.990;2023-02-27T09:29:57;102727.38;;;3.41;71.02
78685;BME280;68002;52.310;6.990;2023-02-27T09:32:23;102724.63;;;3.45;70.75
78685;BME280;68002;52.310;6.990;2023-02-27T09:34:48;102720.81;;;3.54;70.20
78685;BME280;68002;52.310;6.990;2023-02-27T09:37:14;102715.56;;;3.52;69.73
78685;BME280;68002;52.310;6.990;2023-02-27T09:39:39;102725.97;;;3.58;70.22
78685;BME280;68002;52.310;6.990;2023-02-27T09:42:08;102728.31;;;3.67;69.88
78685;BME280;68002;52.310;6.990;2023-02-27T09:44:41;102724.31;;;3.82;69.46
78685;BME280;68002;52.310;6.990;2023-02-27T09:47:13;102721.50;;;4.13;70.03
78685;BME280;68002;52.310;6.990;2023-02-27T09:49:50;102725.34;;;4.53;70.02
78685;BME280;68002;52.310;6.990;2023-02-27T09:52:18;102715.53;;;4.80;69.91
78685;BME280;68002;52.310;6.990;2023-02-27T09:54:43;102722.13;;;5.16;69.74
78685;BME280;68002;52.310;6.990;2023-02-27T09:57:14;102717.34;;;5.47;67.84
78685;BME280;68002;52.310;6.990;2023-02-27T09:59:55;102712.56;;;5.77;67.93
78685;BME280;68002;52.310;6.990;2023-02-27T10:02:43;102715.13;;;6.01;64.61
78685;BME280;68002;52.310;6.990;2023-02-27T10:05:34;102713.63;;;6.16;65.35
78685;BME280;68002;52.310;6.990;2023-02-27T10:08:11;102721.75;;;6.33;65.58
78685;BME280;68002;52.310;6.990;2023-02-27T10:10:48;102715.94;;;6.64;62.17
78685;BME280;68002;52.310;6.990;2023-02-27T10:15:52;102722.50;;;7.14;63.45
78685;BME280;68002;52.310;6.990;2023-02-27T10:18:21;102716.13;;;7.54;61.75
78685;BME280;68002;52.310;6.990;2023-02-27T10:20:56;102703.63;;;7.73;57.80
78685;BME280;68002;52.310;6.990;2023-02-27T10:23:40;102702.53;;;8.30;58.65
78685;BME280;68002;52.310;6.990;2023-02-27T10:26:21;102695.81;;;8.72;57.67
78685;BME280;68002;52.310;6.990;2023-02-27T10:28:46;102704.06;;;9.00;56.07
78685;BME280;68002;52.310;6.990;2023-02-27T10:31:19;102694.09;;;9.04;53.78
78685;BME280;68002;52.310;6.990;2023-02-27T10:33:46;102694.88;;;9.22;51.96
78685;BME280;68002;52.310;6.990;2023-02-27T10:36:12;102689.81;;;9.33;54.62
78685;BME280;68002;52.310;6.990;2023-02-27T10:41:05;102687.97;;;9.64;52.96
78685;BME280;68002;52.310;6.990;2023-02-27T10:43:31;102691.88;;;10.34;52.05
78685;BME280;68002;52.310;6.990;2023-02-27T10:46:00;102688.59;;;11.00;50.70
78685;BME280;68002;52.310;6.990;2023-02-27T10:48:26;102689.47;;;11.42;46.86
78685;BME280;68002;52.310;6.990;2023-02-27T10:50:51;102683.47;;;11.79;47.25
78685;BME280;68002;52.310;6.990;2023-02-27T10:53:26;102694.69;;;11.71;41.89
78685;BME280;68002;52.310;6.990;2023-02-27T10:56:02;102691.50;;;11.79;43.00
78685;BME280;68002;52.310;6.990;2023-02-27T10:58:30;102685.19;;;12.19;43.30
78685;BME280;68002;52.310;6.990;2023-02-27T11:00:57;102674.47;;;12.19;42.19
78685;BME280;68002;52.310;6.990;2023-02-27T11:03:28;102676.44;;;12.80;41.95
78685;BME280;68002;52.310;6.990;2023-02-27T11:05:59;102673.09;;;12.89;40.49
78685;BME280;68002;52.310;6.990;2023-02-27T11:08:28;102663.63;;;12.58;39.36
78685;BME280;68002;52.310;6.990;2023-02-27T11:13:23;102671.59;;;12.85;38.09
78685;BME280;68002;52.310;6.990;2023-02-27T11:18:28;102667.06;;;12.85;38.52
78685;BME280;68002;52.310;6.990;2023-02-27T11:21:09;102667.66;;;13.27;37.84
78685;BME280;68002;52.310;6.990;2023-02-27T11:23:35;102666.25;;;13.57;36.10
78685;BME280;68002;52.310;6.990;2023-02-27T11:26:14;102667.50;;;12.67;34.77
78685;BME280;68002;52.310;6.990;2023-02-27T11:28:40;102663.63;;;12.46;37.16
78685;BME280;68002;52.310;6.990;2023-02-27T11:31:14;102668.28;;;11.92;36.72
78685;BME280;68002;52.310;6.990;2023-02-27T11:33:49;102671.25;;;11.20;37.29
78685;BME280;68002;52.310;6.990;2023-02-27T11:36:15;102663.84;;;10.69;37.22
78685;BME280;68002;52.310;6.990;2023-02-27T11:38:40;102674.13;;;10.03;37.30
78685;BME280;68002;52.310;6.990;2023-02-27T11:41:07;102675.81;;;10.20;39.73
78685;BME280;68002;52.310;6.990;2023-02-27T11:43:36;102674.38;;;10.28;38.17
78685;BME280;68002;52.310;6.990;2023-02-27T11:46:06;102671.66;;;10.72;39.23
78685;BME280;68002;52.310;6.990;2023-02-27T11:48:39;102675.56;;;10.08;36.65
78685;BME280;68002;52.310;6.990;2023-02-27T11:51:25;102677.81;;;9.40;37.08
78685;BME280;68002;52.310;6.990;2023-02-27T11:59:07;102670.84;;;9.06;38.25
78685;BME280;68002;52.310;6.990;2023-02-27T12:01:55;102676.50;;;9.00;38.38
78685;BME280;68002;52.310;6.990;2023-02-27T12:04:39;102685.03;;;9.06;39.39
78685;BME280;68002;52.310;6.990;2023-02-27T12:07:10;102674.38;;;9.22;39.82
78685;BME280;68002;52.310;6.990;2023-02-27T12:09:43;102668.44;;;9.93;37.89
78685;BME280;68002;52.310;6.990;2023-02-27T12:12:21;102664.47;;;10.44;36.17
78685;BME280;68002;52.310;6.990;2023-02-27T12:17:54;102662.81;;;9.53;36.75
78685;BME280;68002;52.310;6.990;2023-02-27T12:20:34;102660.44;;;9.17;37.96
78685;BME280;68002;52.310;6.990;2023-02-27T12:23:03;102660.53;;;8.67;38.24
78685;BME280;68002;52.310;6.990;2023-02-27T12:25:37;102665.59;;;8.39;39.51
78685;BME280;68002;52.310;6.990;2023-02-27T12:30:44;102653.59;;;9.74;39.71
78685;BME280;68002;52.310;6.990;2023-02-27T12:33:27;102657.53;;;10.56;37.45
78685;BME280;68002;52.310;6.990;2023-02-27T12:36:00;102644.09;;;11.26;35.71
78685;BME280;68002;52.310;6.990;2023-02-27T12:38:27;102633.69;;;11.07;33.92
78685;BME280;68002;52.310;6.990;2023-02-27T12:41:04;102638.31;;;11.32;34.42
78685;BME280;68002;52.310;6.990;2023-02-27T12:46:19;102626.84;;;11.83;34.79
78685;BME280;68002;52.310;6.990;2023-02-27T12:51:42;102626.00;;;12.96;32.62
78685;BME280;68002;52.310;6.990;2023-02-27T12:54:32;102623.47;;;12.69;31.67
78685;BME280;68002;52.310;6.990;2023-02-27T13:08:13;102647.94;;;10.08;37.61
78685;BME280;68002;52.310;6.990;2023-02-27T13:10:47;102639.16;;;9.76;38.01
78685;BME280;68002;52.310;6.990;2023-02-27T13:13:21;102630.16;;;10.79;37.53
78685;BME280;68002;52.310;6.990;2023-02-27T13:15:57;102632.66;;;11.90;35.86
78685;BME280;68002;52.310;6.990;2023-02-27T13:18:44;102629.72;;;12.57;34.16
78685;BME280;68002;52.310;6.990;2023-02-27T13:21:24;102620.38;;;12.50;32.53
78685;BME280;68002;52.310;6.990;2023-02-27T13:24:01;102629.59;;;12.21;32.93
78685;BME280;68002;52.310;6.990;2023-02-27T13:26:34;102632.50;;;11.66;33.73
78685;BME280;68002;52.310;6.990;2023-02-27T13:29:00;102616.69;;;11.35;35.31
78685;BME280;68002;52.310;6.990;2023-02-27T13:31:36;102625.28;;;12.19;34.74
78685;BME280;68002;52.310;6.990;2023-02-27T13:34:16;102619.94;;;12.69;33.59
78685;BME280;68002;52.310;6.990;2023-02-27T13:37:01;102617.78;;;13.46;31.96
78685;BME280;68002;52.310;6.990;2023-02-27T13:47:57;102627.78;;;10.32;37.51
78685;BME280;68002;52.310;6.990;2023-02-27T13:52:48;102621.38;;;11.85;35.08
78685;BME280;68002;52.310;6.990;2023-02-27T13:55:28;102601.16;;;12.69;33.62
78685;BME280;68002;52.310;6.990;2023-02-27T13:57:56;102599.47;;;12.91;32.58
78685;BME280;68002;52.310;6.990;2023-02-27T14:00:25;102616.41;;;13.17;32.69
78685;BME280;68002;52.310;6.990;2023-02-27T14:02:56;102612.22;;;12.27;32.42
78685;BME280;68002;52.310;6.990;2023-02-27T14:05:38;102613.03;;;10.95;34.64
78685;BME280;68002;52.310;6.990;2023-02-27T14:08:08;102615.28;;;10.03;36.05
78685;BME280;68002;52.310;6.990;2023-02-27T14:10:39;102611.31;;;9.80;37.30
78685;BME280;68002;52.310;6.990;2023-02-27T14:16:10;102606.41;;;12.20;33.41
78685;BME280;68002;52.310;6.990;2023-02-27T14:18:54;102597.16;;;13.23;33.03
78685;BME280;68002;52.310;6.990;2023-02-27T14:24:13;102604.13;;;13.26;31.69
78685;BME280;68002;52.310;6.990;2023-02-27T14:26:39;102600.41;;;12.54;31.70
78685;BME280;68002;52.310;6.990;2023-02-27T14:29:04;102601.06;;;11.01;33.66
78685;BME280;68002;52.310;6.990;2023-02-27T14:31:32;102621.22;;;10.08;35.77
78685;BME280;68002;52.310;6.990;2023-02-27T14:33:59;102614.88;;;10.25;35.67
78685;BME280;68002;52.310;6.990;2023-02-27T14:36:30;102608.88;;;11.18;34.81
78685;BME280;68002;52.310;6.990;2023-02-27T14:38:58;102602.97;;;12.05;33.85
78685;BME280;68002;52.310;6.990;2023-02-27T14:44:17;102604.16;;;13.13;31.60
78685;BME280;68002;52.310;6.990;2023-02-27T14:46:43;102611.38;;;13.13;30.42
78685;BME280;68002;52.310;6.990;2023-02-27T14:49:19;102602.22;;;13.15;31.36